sensor_id;sensor_type;location;lat;lon;timestamp;pressure;altitude;pressure_sealevel;temperature;humidity
7760;BME280;3924;48.830;9.262;2023-05-24T00:00:20;98890.34;;;14.72;68.93
7760;BME280;3924;48.830;9.262;2023-05-24T00:02:47;98887.00;;;14.75;68.67
7760;BME280;3924;48.830;9.262;2023-05-24T00:05:15;98886.69;;;14.77;68.61
7760;BME280;3924;48.830;9.262;2023-05-24T00:07:44;98878.00;;;14.75;68.39
7760;BME280;3924;48.830;9.262;2023-05-24T00:10:11;98886.69;;;14.77;68.27
7760;BME280;3924;48.830;9.262;2023-05-24T00:12:37;98888.47;;;14.82;68.13
7760;BME280;3924;48.830;9.262;2023-05-24T00:15:04;98886.69;;;14.77;67.87
7760;BME280;3924;48.830;9.262;2023-05-24T00:17:32;98885.09;;;14.76;67.45
7760;BME280;3924;48.830;9.262;2023-05-24T00:20:09;98880.09;;;14.78;67.55
7760;BME280;3924;48.830;9.262;2023-05-24T00:22:42;98878.81;;;14.75;67.33
7760;BME280;3924;48.830;9.262;2023-05-24T00:25:09;98867.06;;;14.75;67.08
7760;BME280;3924;48.830;9.262;2023-05-24T00:27:35;98868.72;;;14.76;66.82
7760;BME280;3924;48.830;9.262;2023-05-24T00:30:07;98865.66;;;14.77;66.97
7760;BME280;3924;48.830;9.262;2023-05-24T00:32:34;98865.34;;;14.79;66.57
7760;BME280;3924;48.830;9.262;2023-05-24T00:35:00;98866.47;;;14.78;66.58
7760;BME280;3924;48.830;9.262;2023-05-24T00:37:27;98864.69;;;14.82;66.21
7760;BME280;3924;48.830;9.262;2023-05-24T00:39:55;98864.22;;;14.80;66.10
7760;BME280;3924;48.830;9.262;2023-05-24T00:42:21;98858.97;;;14.84;66.08
7760;BME280;3924;48.830;9.262;2023-05-24T00:44:48;98862.97;;;14.86;65.94
7760;BME280;3924;48.830;9.262;2023-05-24T00:47:15;98860.88;;;14.83;65.86
7760;BME280;3924;48.830;9.262;2023-05-24T00:49:44;98855.41;;;14.83;65.80
7760;BME280;3924;48.830;9.262;2023-05-24T00:52:12;98849.44;;;14.81;65.55
7760;BME280;3924;48.830;9.262;2023-05-24T00:54:39;98857.00;;;14.75;65.42
7760;BME280;3924;48.830;9.262;2023-05-24T00:57:06;98850.97;;;14.65;65.69
7760;BME280;3924;48.830;9.262;2023-05-24T00:59:33;98853.00;;;14.59;65.75
7760;BME280;3924;48.830;9.262;2023-05-24T01:02:00;98853.47;;;14.53;65.65
7760;BME280;3924;48.830;9.262;2023-05-24T01:04:26;98857.94;;;14.48;65.67
7760;BME280;3924;48.830;9.262;2023-05-24T01:07:17;98856.31;;;14.47;65.78
7760;BME280;3924;48.830;9.262;2023-05-24T01:12:40;98853.69;;;14.42;65.58
7760;BME280;3924;48.830;9.262;2023-05-24T01:15:24;98861.19;;;14.37;65.60
7760;BME280;3924;48.830;9.262;2023-05-24T01:18:27;98863.22;;;14.31;65.52
7760;BME280;3924;48.830;9.262;2023-05-24T01:21:05;98853.31;;;14.35;65.36
7760;BME280;3924;48.830;9.262;2023-05-24T01:23:46;98862.91;;;14.33;65.36
7760;BME280;3924;48.830;9.262;2023-05-24T01:26:41;98863.34;;;14.26;65.33
7760;BME280;3924;48.830;9.262;2023-05-24T01:29:11;98861.84;;;14.20;65.24
7760;BME280;3924;48.830;9.262;2023-05-24T01:31:39;98858.94;;;14.16;65.33
7760;BME280;3924;48.830;9.262;2023-05-24T01:34:06;98868.94;;;14.21;65.29
7760;BME280;3924;48.830;9.262;2023-05-24T01:36:33;98871.66;;;14.21;65.40
7760;BME280;3924;48.830;9.262;2023-05-24T01:39:02;98860.06;;;14.15;65.05
7760;BME280;3924;48.830;9.262;2023-05-24T01:41:39;98854.41;;;14.12;65.10
7760;BME280;3924;48.830;9.262;2023-05-24T01:47:06;98869.66;;;14.13;65.34
7760;BME280;3924;48.830;9.262;2023-05-24T01:49:39;98870.44;;;14.13;65.17
7760;BME280;3924;48.830;9.262;2023-05-24T01:52:11;98874.50;;;14.16;65.13
7760;BME280;3924;48.830;9.262;2023-05-24T01:54:43;98872.69;;;14.11;65.17
7760;BME280;3924;48.830;9.262;2023-05-24T01:57:10;98877.69;;;13.95;65.44
7760;BME280;3924;48.830;9.262;2023-05-24T01:59:42;98866.41;;;13.88;65.27
7760;BME280;3924;48.830;9.262;2023-05-24T02:02:10;98875.69;;;13.87;65.28
7760;BME280;3924;48.830;9.262;2023-05-24T02:04:40;98866.88;;;13.90;65.32
7760;BME280;3924;48.830;9.262;2023-05-24T02:07:07;98872.03;;;13.92;65.20
7760;BME280;3924;48.830;9.262;2023-05-24T02:09:34;98880.13;;;13.83;65.34
7760;BME280;3924;48.830;9.262;2023-05-24T02:12:02;98871.66;;;13.71;65.60
7760;BME280;3924;48.830;9.262;2023-05-24T02:14:30;98878.31;;;13.65;65.67
7760;BME280;3924;48.830;9.262;2023-05-24T02:16:56;98888.63;;;13.68;65.52
7760;BME280;3924;48.830;9.262;2023-05-24T02:19:24;98879.34;;;13.69;65.51
7760;BME280;3924;48.830;9.262;2023-05-24T02:21:52;98872.47;;;13.58;65.73
7760;BME280;3924;48.830;9.262;2023-05-24T02:24:19;98877.44;;;13.56;66.11
7760;BME280;3924;48.830;9.262;2023-05-24T02:26:46;98879.06;;;13.57;65.88
7760;BME280;3924;48.830;9.262;2023-05-24T02:29:13;98882.72;;;13.52;66.01
7760;BME280;3924;48.830;9.262;2023-05-24T02:31:39;98880.88;;;13.48;66.14
7760;BME280;3924;48.830;9.262;2023-05-24T02:34:06;98877.66;;;13.46;66.37
7760;BME280;3924;48.830;9.262;2023-05-24T02:36:33;98879.75;;;13.49;66.31
7760;BME280;3924;48.830;9.262;2023-05-24T02:39:02;98871.59;;;13.49;66.17
7760;BME280;3924;48.830;9.262;2023-05-24T02:41:29;98879.28;;;13.47;66.29
7760;BME280;3924;48.830;9.262;2023-05-24T02:43:56;98878.66;;;13.50;66.21
7760;BME280;3924;48.830;9.262;2023-05-24T02:46:22;98878.88;;;13.53;66.13
7760;BME280;3924;48.830;9.262;2023-05-24T02:48:49;98885.84;;;13.46;66.37
7760;BME280;3924;48.830;9.262;2023-05-24T02:51:16;98889.25;;;13.37;66.49
7760;BME280;3924;48.830;9.262;2023-05-24T02:53:43;98887.94;;;13.35;66.65
7760;BME280;3924;48.830;9.262;2023-05-24T02:56:10;98888.56;;;13.32;66.57
7760;BME280;3924;48.830;9.262;2023-05-24T02:58:38;98878.56;;;13.27;66.80
7760;BME280;3924;48.830;9.262;2023-05-24T03:01:06;98890.66;;;13.21;66.97
7760;BME280;3924;48.830;9.262;2023-05-24T03:03:34;98880.94;;;13.15;66.93
7760;BME280;3924;48.830;9.262;2023-05-24T03:06:01;98877.41;;;13.14;67.01
7760;BME280;3924;48.830;9.262;2023-05-24T03:08:28;98886.78;;;13.08;67.13
7760;BME280;3924;48.830;9.262;2023-05-24T03:10:55;98892.03;;;13.05;67.18
7760;BME280;3924;48.830;9.262;2023-05-24T03:13:22;98889.81;;;13.07;67.09
7760;BME280;3924;48.830;9.262;2023-05-24T03:15:48;98893.03;;;13.09;67.19
7760;BME280;3924;48.830;9.262;2023-05-24T03:18:15;98888.38;;;13.09;67.17
7760;BME280;3924;48.830;9.262;2023-05-24T03:20:42;98890.00;;;13.10;67.29
7760;BME280;3924;48.830;9.262;2023-05-24T03:23:09;98891.00;;;13.01;67.33
7760;BME280;3924;48.830;9.262;2023-05-24T03:25:35;98888.66;;;12.94;67.43
7760;BME280;3924;48.830;9.262;2023-05-24T03:28:02;98887.25;;;12.97;67.48
7760;BME280;3924;48.830;9.262;2023-05-24T03:30:28;98884.84;;;12.95;67.42
7760;BME280;3924;48.830;9.262;2023-05-24T03:32:55;98885.16;;;12.94;67.67
7760;BME280;3924;48.830;9.262;2023-05-24T03:35:22;98882.13;;;12.95;67.52
7760;BME280;3924;48.830;9.262;2023-05-24T03:37:51;98880.13;;;13.01;67.57
7760;BME280;3924;48.830;9.262;2023-05-24T03:40:18;98881.63;;;13.07;67.37
7760;BME280;3924;48.830;9.262;2023-05-24T03:42:45;98882.75;;;13.06;67.38
7760;BME280;3924;48.830;9.262;2023-05-24T03:45:11;98883.53;;;12.93;67.77
7760;BME280;3924;48.830;9.262;2023-05-24T03:47:44;98887.88;;;12.94;67.80
7760;BME280;3924;48.830;9.262;2023-05-24T03:50:11;98882.19;;;12.90;67.94
7760;BME280;3924;48.830;9.262;2023-05-24T03:52:41;98885.84;;;12.85;68.10
7760;BME280;3924;48.830;9.262;2023-05-24T03:55:07;98881.50;;;12.84;67.98
7760;BME280;3924;48.830;9.262;2023-05-24T03:57:34;98880.72;;;12.84;68.12
7760;BME280;3924;48.830;9.262;2023-05-24T04:00:01;98878.25;;;12.82;67.94
7760;BME280;3924;48.830;9.262;2023-05-24T04:02:29;98883.19;;;12.80;68.02
7760;BME280;3924;48.830;9.262;2023-05-24T04:04:56;98873.44;;;12.79;68.00
7760;BME280;3924;48.830;9.262;2023-05-24T04:07:23;98874.00;;;12.76;68.10
7760;BME280;3924;48.830;9.262;2023-05-24T04:09:49;98871.81;;;12.78;68.30
7760;BME280;3924;48.830;9.262;2023-05-24T04:12:16;98864.78;;;12.77;68.01
7760;BME280;3924;48.830;9.262;2023-05-24T04:14:44;98868.78;;;12.80;68.28
7760;BME280;3924;48.830;9.262;2023-05-24T04:17:10;98865.19;;;12.84;68.33
7760;BME280;3924;48.830;9.262;2023-05-24T04:19:37;98867.38;;;12.82;68.15
7760;BME280;3924;48.830;9.262;2023-05-24T04:22:04;98870.09;;;12.82;68.24
7760;BME280;3924;48.830;9.262;2023-05-24T04:24:31;98877.69;;;12.85;68.37
7760;BME280;3924;48.830;9.262;2023-05-24T04:26:58;98871.50;;;12.80;68.17
7760;BME280;3924;48.830;9.262;2023-05-24T04:29:26;98870.78;;;12.74;68.31
7760;BME280;3924;48.830;9.262;2023-05-24T04:31:53;98877.41;;;12.68;68.48
7760;BME280;3924;48.830;9.262;2023-05-24T04:34:20;98872.09;;;12.63;68.58
7760;BME280;3924;48.830;9.262;2023-05-24T04:36:47;98881.06;;;12.64;68.65
7760;BME280;3924;48.830;9.262;2023-05-24T04:39:15;98881.56;;;12.66;68.71
7760;BME280;3924;48.830;9.262;2023-05-24T04:41:44;98878.22;;;12.69;68.74
7760;BME280;3924;48.830;9.262;2023-05-24T04:44:11;98889.34;;;12.72;68.77
7760;BME280;3924;48.830;9.262;2023-05-24T04:46:37;98883.69;;;12.82;68.43
7760;BME280;3924;48.830;9.262;2023-05-24T04:49:04;98889.03;;;12.74;68.62
7760;BME280;3924;48.830;9.262;2023-05-24T04:51:33;98893.31;;;12.61;68.88
7760;BME280;3924;48.830;9.262;2023-05-24T04:54:04;98893.31;;;12.61;68.88
7760;BME280;3924;48.830;9.262;2023-05-24T04:56:35;98905.22;;;12.65;68.86
7760;BME280;3924;48.830;9.262;2023-05-24T04:59:04;98908.16;;;12.69;68.67
7760;BME280;3924;48.830;9.262;2023-05-24T05:01:31;98900.28;;;12.67;68.81
7760;BME280;3924;48.830;9.262;2023-05-24T05:03:58;98905.22;;;12.65;68.94
7760;BME280;3924;48.830;9.262;2023-05-24T05:06:25;98914.50;;;12.64;68.90
7760;BME280;3924;48.830;9.262;2023-05-24T05:08:52;98916.63;;;12.67;68.93
7760;BME280;3924;48.830;9.262;2023-05-24T05:11:20;98913.91;;;12.67;68.75
7760;BME280;3924;48.830;9.262;2023-05-24T05:13:50;98911.28;;;12.76;68.92
7760;BME280;3924;48.830;9.262;2023-05-24T05:16:17;98909.53;;;12.85;68.74
7760;BME280;3924;48.830;9.262;2023-05-24T05:18:44;98919.19;;;12.77;68.52
7760;BME280;3924;48.830;9.262;2023-05-24T05:21:11;98915.03;;;12.80;68.79
7760;BME280;3924;48.830;9.262;2023-05-24T05:23:40;98917.25;;;12.78;68.81
7760;BME280;3924;48.830;9.262;2023-05-24T05:26:07;98916.72;;;12.76;68.89
7760;BME280;3924;48.830;9.262;2023-05-24T05:28:34;98912.94;;;12.77;68.84
7760;BME280;3924;48.830;9.262;2023-05-24T05:31:00;98910.91;;;12.82;68.65
7760;BME280;3924;48.830;9.262;2023-05-24T05:33:27;98913.22;;;12.75;68.85
7760;BME280;3924;48.830;9.262;2023-05-24T05:35:54;98909.28;;;12.81;68.60
7760;BME280;3924;48.830;9.262;2023-05-24T05:38:21;98910.94;;;12.96;68.49
7760;BME280;3924;48.830;9.262;2023-05-24T05:40:49;98911.28;;;13.08;68.34
7760;BME280;3924;48.830;9.262;2023-05-24T05:43:18;98921.28;;;13.13;68.20
7760;BME280;3924;48.830;9.262;2023-05-24T05:45:46;98907.03;;;13.16;68.47
7760;BME280;3924;48.830;9.262;2023-05-24T05:48:13;98911.25;;;13.27;67.93
7760;BME280;3924;48.830;9.262;2023-05-24T05:50:40;98909.72;;;13.35;68.06
7760;BME280;3924;48.830;9.262;2023-05-24T05:53:07;98912.53;;;13.30;68.05
7760;BME280;3924;48.830;9.262;2023-05-24T05:55:34;98902.97;;;13.32;68.09
7760;BME280;3924;48.830;9.262;2023-05-24T05:58:01;98911.66;;;13.34;67.96
7760;BME280;3924;48.830;9.262;2023-05-24T06:00:28;98910.84;;;13.34;68.06
7760;BME280;3924;48.830;9.262;2023-05-24T06:02:55;98908.53;;;13.41;67.84
7760;BME280;3924;48.830;9.262;2023-05-24T06:05:21;98912.03;;;13.41;67.58
7760;BME280;3924;48.830;9.262;2023-05-24T06:07:51;98917.28;;;13.38;67.70
7760;BME280;3924;48.830;9.262;2023-05-24T06:10:18;98915.47;;;13.33;67.64
7760;BME280;3924;48.830;9.262;2023-05-24T06:12:45;98905.19;;;13.30;67.85
7760;BME280;3924;48.830;9.262;2023-05-24T06:15:13;98905.38;;;13.34;67.69
7760;BME280;3924;48.830;9.262;2023-05-24T06:17:39;98906.38;;;13.38;67.69
7760;BME280;3924;48.830;9.262;2023-05-24T06:20:08;98901.56;;;13.49;67.39
7760;BME280;3924;48.830;9.262;2023-05-24T06:22:37;98892.66;;;13.57;67.10
7760;BME280;3924;48.830;9.262;2023-05-24T06:25:05;98898.41;;;13.69;66.82
7760;BME280;3924;48.830;9.262;2023-05-24T06:27:32;98893.38;;;13.62;66.68
7760;BME280;3924;48.830;9.262;2023-05-24T06:29:58;98890.03;;;13.52;67.01
7760;BME280;3924;48.830;9.262;2023-05-24T06:32:27;98899.94;;;13.61;66.97
7760;BME280;3924;48.830;9.262;2023-05-24T06:34:53;98903.38;;;13.67;66.84
7760;BME280;3924;48.830;9.262;2023-05-24T06:37:20;98899.03;;;13.66;66.55
7760;BME280;3924;48.830;9.262;2023-05-24T06:39:50;98905.38;;;13.75;66.60
7760;BME280;3924;48.830;9.262;2023-05-24T06:42:17;98913.34;;;13.72;66.33
7760;BME280;3924;48.830;9.262;2023-05-24T06:44:44;98904.38;;;13.57;66.59
7760;BME280;3924;48.830;9.262;2023-05-24T06:47:10;98914.69;;;13.60;66.45
7760;BME280;3924;48.830;9.262;2023-05-24T06:49:37;98925.34;;;13.57;66.52
7760;BME280;3924;48.830;9.262;2023-05-24T06:52:05;98927.78;;;13.58;66.41
7760;BME280;3924;48.830;9.262;2023-05-24T06:54:33;98925.19;;;13.53;66.61
7760;BME280;3924;48.830;9.262;2023-05-24T06:57:01;98930.63;;;13.53;66.62
7760;BME280;3924;48.830;9.262;2023-05-24T06:59:29;98938.06;;;13.48;66.52
7760;BME280;3924;48.830;9.262;2023-05-24T07:01:57;98947.75;;;13.40;66.82
7760;BME280;3924;48.830;9.262;2023-05-24T07:04:29;98947.38;;;13.47;66.61
7760;BME280;3924;48.830;9.262;2023-05-24T07:06:55;98956.66;;;13.46;66.54
7760;BME280;3924;48.830;9.262;2023-05-24T07:09:23;98955.81;;;13.31;66.77
7760;BME280;3924;48.830;9.262;2023-05-24T07:11:50;98955.22;;;13.34;66.72
7760;BME280;3924;48.830;9.262;2023-05-24T07:14:17;98956.81;;;13.35;66.64
7760;BME280;3924;48.830;9.262;2023-05-24T07:16:44;98965.31;;;13.34;66.38
7760;BME280;3924;48.830;9.262;2023-05-24T07:19:11;98966.50;;;13.28;66.55
7760;BME280;3924;48.830;9.262;2023-05-24T07:21:39;98964.97;;;13.22;66.79
7760;BME280;3924;48.830;9.262;2023-05-24T07:24:06;98969.22;;;13.28;66.63
7760;BME280;3924;48.830;9.262;2023-05-24T07:26:33;98970.13;;;13.37;66.46
7760;BME280;3924;48.830;9.262;2023-05-24T07:28:59;98972.47;;;13.44;66.01
7760;BME280;3924;48.830;9.262;2023-05-24T07:31:28;98969.66;;;13.49;66.04
7760;BME280;3924;48.830;9.262;2023-05-24T07:33:57;98973.97;;;13.50;66.07
7760;BME280;3924;48.830;9.262;2023-05-24T07:36:24;98976.41;;;13.65;65.76
7760;BME280;3924;48.830;9.262;2023-05-24T07:38:51;98966.53;;;13.69;65.32
7760;BME280;3924;48.830;9.262;2023-05-24T07:41:18;98974.72;;;13.69;65.41
7760;BME280;3924;48.830;9.262;2023-05-24T07:43:45;98979.13;;;13.79;65.02
7760;BME280;3924;48.830;9.262;2023-05-24T07:46:12;98980.06;;;13.88;64.73
7760;BME280;3924;48.830;9.262;2023-05-24T07:48:39;98970.78;;;13.89;64.80
7760;BME280;3924;48.830;9.262;2023-05-24T07:51:05;98977.22;;;13.93;64.74
7760;BME280;3924;48.830;9.262;2023-05-24T07:53:34;98988.75;;;13.90;64.76
7760;BME280;3924;48.830;9.262;2023-05-24T07:56:03;98976.63;;;13.82;64.81
7760;BME280;3924;48.830;9.262;2023-05-24T07:58:29;98974.81;;;13.91;64.57
7760;BME280;3924;48.830;9.262;2023-05-24T08:00:57;98978.44;;;14.01;64.66
7760;BME280;3924;48.830;9.262;2023-05-24T08:03:23;98986.50;;;14.06;64.33
7760;BME280;3924;48.830;9.262;2023-05-24T08:05:51;98991.56;;;13.85;64.84
7760;BME280;3924;48.830;9.262;2023-05-24T08:08:19;98990.34;;;13.63;64.99
7760;BME280;3924;48.830;9.262;2023-05-24T08:10:46;98983.28;;;13.49;65.21
7760;BME280;3924;48.830;9.262;2023-05-24T08:13:12;98986.50;;;13.51;65.29
7760;BME280;3924;48.830;9.262;2023-05-24T08:15:39;98990.16;;;13.60;65.18
7760;BME280;3924;48.830;9.262;2023-05-24T08:18:06;98998.63;;;13.72;65.06
7760;BME280;3924;48.830;9.262;2023-05-24T08:20:35;98995.09;;;13.72;65.00
7760;BME280;3924;48.830;9.262;2023-05-24T08:23:03;98999.63;;;13.62;65.19
7760;BME280;3924;48.830;9.262;2023-05-24T08:25:32;99003.88;;;13.55;65.46
7760;BME280;3924;48.830;9.262;2023-05-24T08:27:59;99003.88;;;13.55;65.52
7760;BME280;3924;48.830;9.262;2023-05-24T08:30:26;99007.09;;;13.57;65.16
7760;BME280;3924;48.830;9.262;2023-05-24T08:32:52;99001.25;;;13.63;65.30
7760;BME280;3924;48.830;9.262;2023-05-24T08:35:19;98998.63;;;13.72;65.12
7760;BME280;3924;48.830;9.262;2023-05-24T08:37:49;99005.31;;;13.93;64.69
7760;BME280;3924;48.830;9.262;2023-05-24T08:40:16;99013.34;;;13.99;64.64
7760;BME280;3924;48.830;9.262;2023-05-24T08:42:44;98997.13;;;14.07;64.29
7760;BME280;3924;48.830;9.262;2023-05-24T08:45:14;99000.66;;;14.08;64.38
7760;BME280;3924;48.830;9.262;2023-05-24T08:47:41;98991.44;;;14.17;64.29
7760;BME280;3924;48.830;9.262;2023-05-24T08:50:09;99005.06;;;14.31;63.95
7760;BME280;3924;48.830;9.262;2023-05-24T08:52:36;99005.28;;;14.21;64.10
7760;BME280;3924;48.830;9.262;2023-05-24T08:55:06;99001.03;;;14.29;63.89
7760;BME280;3924;48.830;9.262;2023-05-24T08:57:35;99000.72;;;14.30;63.79
7760;BME280;3924;48.830;9.262;2023-05-24T09:00:09;99013.75;;;14.06;64.19
7760;BME280;3924;48.830;9.262;2023-05-24T09:02:39;99019.03;;;13.88;64.65
7760;BME280;3924;48.830;9.262;2023-05-24T09:05:10;99009.91;;;13.79;64.62
7760;BME280;3924;48.830;9.262;2023-05-24T09:07:37;99009.66;;;13.94;64.52
7760;BME280;3924;48.830;9.262;2023-05-24T09:10:06;99011.34;;;14.04;64.43
7760;BME280;3924;48.830;9.262;2023-05-24T09:12:38;99008.13;;;14.16;64.15
7760;BME280;3924;48.830;9.262;2023-05-24T09:15:06;99010.13;;;13.96;64.26
7760;BME280;3924;48.830;9.262;2023-05-24T09:17:35;99003.16;;;13.90;64.55
7760;BME280;3924;48.830;9.262;2023-05-24T09:20:06;99009.03;;;13.84;64.76
7760;BME280;3924;48.830;9.262;2023-05-24T09:22:37;99002.69;;;13.88;64.81
7760;BME280;3924;48.830;9.262;2023-05-24T09:25:07;98995.50;;;13.79;64.72
7760;BME280;3924;48.830;9.262;2023-05-24T09:27:35;99006.59;;;13.82;64.68
7760;BME280;3924;48.830;9.262;2023-05-24T09:30:04;99005.59;;;13.78;64.74
7760;BME280;3924;48.830;9.262;2023-05-24T09:32:33;99007.50;;;13.91;64.65
7760;BME280;3924;48.830;9.262;2023-05-24T09:35:01;99012.38;;;13.94;64.48
7760;BME280;3924;48.830;9.262;2023-05-24T09:37:28;99016.22;;;13.93;64.56
7760;BME280;3924;48.830;9.262;2023-05-24T09:39:58;99006.50;;;13.74;64.79
7760;BME280;3924;48.830;9.262;2023-05-24T09:42:25;99016.19;;;13.66;64.73
7760;BME280;3924;48.830;9.262;2023-05-24T09:47:39;99018.41;;;13.78;64.60
7760;BME280;3924;48.830;9.262;2023-05-24T09:50:16;99011.97;;;13.87;64.58
7760;BME280;3924;48.830;9.262;2023-05-24T09:52:43;99017.91;;;13.76;64.72
7760;BME280;3924;48.830;9.262;2023-05-24T09:55:14;99009.09;;;13.65;64.94
7760;BME280;3924;48.830;9.262;2023-05-24T09:57:43;99022.63;;;13.56;65.24
7760;BME280;3924;48.830;9.262;2023-05-24T10:00:10;99023.63;;;13.47;65.04
7760;BME280;3924;48.830;9.262;2023-05-24T10:02:43;99018.75;;;13.44;65.10
7760;BME280;3924;48.830;9.262;2023-05-24T10:05:19;99022.50;;;13.34;65.50
7760;BME280;3924;48.830;9.262;2023-05-24T10:07:46;99020.34;;;13.31;65.51
7760;BME280;3924;48.830;9.262;2023-05-24T10:10:13;99025.41;;;13.37;65.29
7760;BME280;3924;48.830;9.262;2023-05-24T10:12:40;99029.47;;;13.40;65.38
7760;BME280;3924;48.830;9.262;2023-05-24T10:15:09;99019.84;;;13.29;65.39
7760;BME280;3924;48.830;9.262;2023-05-24T10:17:36;99021.19;;;13.31;65.43
7760;BME280;3924;48.830;9.262;2023-05-24T10:20:04;99024.97;;;13.30;65.38
7760;BME280;3924;48.830;9.262;2023-05-24T10:22:36;99016.41;;;13.23;65.40
7760;BME280;3924;48.830;9.262;2023-05-24T10:25:07;99018.63;;;13.21;65.55
7760;BME280;3924;48.830;9.262;2023-05-24T10:27:38;99022.88;;;13.27;65.33
7760;BME280;3924;48.830;9.262;2023-05-24T10:30:10;99016.53;;;13.32;65.46
7760;BME280;3924;48.830;9.262;2023-05-24T10:32:41;99021.28;;;13.40;65.13
7760;BME280;3924;48.830;9.262;2023-05-24T10:35:09;99013.72;;;13.51;64.87
7760;BME280;3924;48.830;9.262;2023-05-24T10:37:40;99012.53;;;13.57;64.95
7760;BME280;3924;48.830;9.262;2023-05-24T10:40:16;99017.19;;;13.56;64.95
7760;BME280;3924;48.830;9.262;2023-05-24T10:42:43;99014.03;;;13.49;65.08
7760;BME280;3924;48.830;9.262;2023-05-24T10:48:00;99007.09;;;13.57;64.82
7760;BME280;3924;48.830;9.262;2023-05-24T10:50:27;99011.81;;;13.65;64.67
7760;BME280;3924;48.830;9.262;2023-05-24T10:53:13;99004.69;;;13.69;64.63
7760;BME280;3924;48.830;9.262;2023-05-24T10:55:59;99007.72;;;13.81;64.40
7760;BME280;3924;48.830;9.262;2023-05-24T11:00:59;98997.38;;;14.19;63.69
7760;BME280;3924;48.830;9.262;2023-05-24T11:03:31;98990.41;;;14.27;63.32
7760;BME280;3924;48.830;9.262;2023-05-24T11:05:58;98996.38;;;14.29;63.34
7760;BME280;3924;48.830;9.262;2023-05-24T11:08:30;98991.53;;;14.26;63.35
7760;BME280;3924;48.830;9.262;2023-05-24T11:11:08;98993.22;;;14.49;62.87
7760;BME280;3924;48.830;9.262;2023-05-24T11:13:39;98976.50;;;14.65;62.41
7760;BME280;3924;48.830;9.262;2023-05-24T11:16:06;98991.28;;;14.86;61.65
7760;BME280;3924;48.830;9.262;2023-05-24T11:18:33;98989.91;;;14.97;61.52
7760;BME280;3924;48.830;9.262;2023-05-24T11:21:05;98988.78;;;15.21;61.23
7760;BME280;3924;48.830;9.262;2023-05-24T11:23:31;98990.28;;;15.04;61.18
7760;BME280;3924;48.830;9.262;2023-05-24T11:26:01;98990.72;;;14.98;61.03
7760;BME280;3924;48.830;9.262;2023-05-24T11:28:28;98984.81;;;15.04;60.92
7760;BME280;3924;48.830;9.262;2023-05-24T11:30:56;98989.53;;;15.44;60.26
7760;BME280;3924;48.830;9.262;2023-05-24T11:33:23;98982.00;;;15.72;59.64
7760;BME280;3924;48.830;9.262;2023-05-24T11:35:53;98976.38;;;15.46;59.66
7760;BME280;3924;48.830;9.262;2023-05-24T11:38:20;98972.22;;;15.48;59.90
7760;BME280;3924;48.830;9.262;2023-05-24T11:40:50;98979.34;;;15.98;58.84
7760;BME280;3924;48.830;9.262;2023-05-24T11:43:19;98977.06;;;15.91;58.72
7760;BME280;3924;48.830;9.262;2023-05-24T11:45:48;98980.06;;;15.72;58.64
7760;BME280;3924;48.830;9.262;2023-05-24T11:48:16;98972.13;;;16.10;57.90
7760;BME280;3924;48.830;9.262;2023-05-24T11:50:46;98973.63;;;16.94;56.17
7760;BME280;3924;48.830;9.262;2023-05-24T11:53:17;98960.03;;;17.33;55.09
7760;BME280;3924;48.830;9.262;2023-05-24T11:55:45;98962.19;;;17.01;55.49
7760;BME280;3924;48.830;9.262;2023-05-24T11:58:25;98952.22;;;16.88;55.83
7760;BME280;3924;48.830;9.262;2023-05-24T12:00:54;98953.19;;;16.92;55.69
7760;BME280;3924;48.830;9.262;2023-05-24T12:03:21;98943.84;;;16.93;55.30
7760;BME280;3924;48.830;9.262;2023-05-24T12:05:50;98957.03;;;17.08;54.82
7760;BME280;3924;48.830;9.262;2023-05-24T12:08:20;98947.13;;;17.33;54.26
7760;BME280;3924;48.830;9.262;2023-05-24T12:10:47;98945.19;;;17.81;53.59
7760;BME280;3924;48.830;9.262;2023-05-24T12:13:21;98940.19;;;18.33;52.53
7760;BME280;3924;48.830;9.262;2023-05-24T12:15:54;98943.66;;;18.21;52.52
7760;BME280;3924;48.830;9.262;2023-05-24T12:18:23;98945.00;;;18.57;51.66
7760;BME280;3924;48.830;9.262;2023-05-24T12:20:51;98932.22;;;18.82;51.05
7760;BME280;3924;48.830;9.262;2023-05-24T12:23:20;98937.88;;;18.98;50.65
7760;BME280;3924;48.830;9.262;2023-05-24T12:25:48;98938.56;;;18.95;50.47
7760;BME280;3924;48.830;9.262;2023-05-24T12:28:19;98936.09;;;19.14;50.21
7760;BME280;3924;48.830;9.262;2023-05-24T12:30:48;98925.66;;;19.07;50.07
7760;BME280;3924;48.830;9.262;2023-05-24T12:33:18;98936.97;;;18.52;50.64
7760;BME280;3924;48.830;9.262;2023-05-24T12:35:45;98928.88;;;17.84;51.78
7760;BME280;3924;48.830;9.262;2023-05-24T12:38:13;98932.09;;;17.48;52.09
7760;BME280;3924;48.830;9.262;2023-05-24T12:40:41;98922.41;;;17.50;52.08
7760;BME280;3924;48.830;9.262;2023-05-24T12:43:11;98918.09;;;18.09;51.17
7760;BME280;3924;48.830;9.262;2023-05-24T12:45:40;98918.22;;;18.54;49.90
7760;BME280;3924;48.830;9.262;2023-05-24T12:48:07;98913.91;;;18.65;49.73
7760;BME280;3924;48.830;9.262;2023-05-24T12:50:34;98922.75;;;18.92;49.27
7760;BME280;3924;48.830;9.262;2023-05-24T12:53:02;98912.00;;;18.99;48.96
7760;BME280;3924;48.830;9.262;2023-05-24T12:55:29;98906.31;;;18.71;49.31
7760;BME280;3924;48.830;9.262;2023-05-24T12:57:57;98913.41;;;18.51;49.56
7760;BME280;3924;48.830;9.262;2023-05-24T13:00:28;98907.09;;;18.71;49.46
7760;BME280;3924;48.830;9.262;2023-05-24T13:02:55;98895.84;;;18.64;49.27
7760;BME280;3924;48.830;9.262;2023-05-24T13:05:25;98901.09;;;18.90;48.82
7760;BME280;3924;48.830;9.262;2023-05-24T13:07:54;98907.19;;;18.96;48.50
7760;BME280;3924;48.830;9.262;2023-05-24T13:10:22;98904.81;;;18.52;49.29
7760;BME280;3924;48.830;9.262;2023-05-24T13:12:49;98903.38;;;18.34;49.65
7760;BME280;3924;48.830;9.262;2023-05-24T13:15:19;98893.31;;;18.17;49.75
7760;BME280;3924;48.830;9.262;2023-05-24T13:17:49;98898.06;;;17.87;50.13
7760;BME280;3924;48.830;9.262;2023-05-24T13:20:15;98890.44;;;17.93;50.05
7760;BME280;3924;48.830;9.262;2023-05-24T13:22:44;98886.81;;;18.01;49.82
7760;BME280;3924;48.830;9.262;2023-05-24T13:25:11;98881.69;;;18.20;49.56
7760;BME280;3924;48.830;9.262;2023-05-24T13:27:39;98888.91;;;18.25;49.35
7760;BME280;3924;48.830;9.262;2023-05-24T13:30:07;98892.94;;;18.07;49.70
7760;BME280;3924;48.830;9.262;2023-05-24T13:32:35;98884.13;;;17.71;50.04
7760;BME280;3924;48.830;9.262;2023-05-24T13:35:07;98882.50;;;17.32;50.81
7760;BME280;3924;48.830;9.262;2023-05-24T13:37:34;98882.13;;;17.42;50.21
7760;BME280;3924;48.830;9.262;2023-05-24T13:40:01;98866.00;;;18.00;49.05
7760;BME280;3924;48.830;9.262;2023-05-24T13:42:27;98871.34;;;18.17;48.86